sensor_id;sensor_type;location;lat;lon;timestamp;temperature;humidity
11963;DHT22;62678;52.130;5.584;2022-12-07T00:00:50;4.40;99.90
11963;DHT22;62678;52.130;5.584;2022-12-07T00:03:16;4.40;99.90
11963;DHT22;62678;52.130;5.584;2022-12-07T00:05:43;4.30;99.90
11963;DHT22;62678;52.130;5.584;2022-12-07T00:08:10;4.30;99.90
11963;DHT22;62678;52.130;5.584;2022-12-07T00:10:38;4.30;99.90
11963;DHT22;62678;52.130;5.584;2022-12-07T00:13:05;4.30;99.90
11963;DHT22;62678;52.130;5.584;2022-12-07T00:15:33;4.40;99.90
11963;DHT22;62678;52.130;5.584;2022-12-07T00:18:01;4.60;99.90
11963;DHT22;62678;52.130;5.584;2022-12-07T00:20:28;4.50;99.90
11963;DHT22;62678;52.130;5.584;2022-12-07T00:22:55;4.50;99.90
11963;DHT22;62678;52.130;5.584;2022-12-07T00:25:22;4.30;99.90
11963;DHT22;62678;52.130;5.584;2022-12-07T00:27:52;4.30;99.90
11963;DHT22;62678;52.130;5.584;2022-12-07T00:30:19;4.30;99.90
11963;DHT22;62678;52.130;5.584;2022-12-07T00:32:46;4.30;99.90
11963;DHT22;62678;52.130;5.584;2022-12-07T00:35:14;4.30;99.90
11963;DHT22;62678;52.130;5.584;2022-12-07T00:37:41;4.20;99.90
11963;DHT22;62678;52.130;5.584;2022-12-07T00:40:09;4.20;99.90
11963;DHT22;62678;52.130;5.584;2022-12-07T00:42:36;4.10;99.90
11963;DHT22;62678;52.130;5.584;2022-12-07T00:45:05;4.10;99.90
11963;DHT22;62678;52.130;5.584;2022-12-07T00:47:32;4.00;99.90
11963;DHT22;62678;52.130;5.584;2022-12-07T00:49:59;4.00;99.90
11963;DHT22;62678;52.130;5.584;2022-12-07T00:52:26;4.00;99.90
11963;DHT22;62678;52.130;5.584;2022-12-07T00:54:53;4.00;99.90
11963;DHT22;62678;52.130;5.584;2022-12-07T00:57:20;4.00;99.90
11963;DHT22;62678;52.130;5.584;2022-12-07T00:59:48;3.90;99.90
11963;DHT22;62678;52.130;5.584;2022-12-07T01:02:16;3.90;99.90
11963;DHT22;62678;52.130;5.584;2022-12-07T01:04:43;3.90;99.90
11963;DHT22;62678;52.130;5.584;2022-12-07T01:07:10;3.90;99.90
11963;DHT22;62678;52.130;5.584;2022-12-07T01:09:36;3.90;99.90
11963;DHT22;62678;52.130;5.584;2022-12-07T01:12:04;3.80;99.90
11963;DHT22;62678;52.130;5.584;2022-12-07T01:14:31;3.80;99.90
11963;DHT22;62678;52.130;5.584;2022-12-07T01:16:58;3.70;99.90
11963;DHT22;62678;52.130;5.584;2022-12-07T01:19:26;3.70;99.90
11963;DHT22;62678;52.130;5.584;2022-12-07T01:21:53;3.70;99.90
11963;DHT22;62678;52.130;5.584;2022-12-07T01:24:20;3.70;99.90
11963;DHT22;62678;52.130;5.584;2022-12-07T01:26:49;3.60;99.90
11963;DHT22;62678;52.130;5.584;2022-12-07T01:29:16;3.60;99.90
11963;DHT22;62678;52.130;5.584;2022-12-07T01:31:42;3.60;99.90
11963;DHT22;62678;52.130;5.584;2022-12-07T01:34:09;3.60;99.90
11963;DHT22;62678;52.130;5.584;2022-12-07T01:36:38;3.60;99.90
11963;DHT22;62678;52.130;5.584;2022-12-07T01:39:06;3.70;99.90
11963;DHT22;62678;52.130;5.584;2022-12-07T01:41:36;3.70;99.90
11963;DHT22;62678;52.130;5.584;2022-12-07T01:44:14;3.70;99.90
11963;DHT22;62678;52.130;5.584;2022-12-07T01:46:42;3.60;99.90
11963;DHT22;62678;52.130;5.584;2022-12-07T01:49:12;3.50;99.90
11963;DHT22;62678;52.130;5.584;2022-12-07T01:51:43;3.50;99.90
11963;DHT22;62678;52.130;5.584;2022-12-07T01:54:14;3.50;99.90
11963;DHT22;62678;52.130;5.584;2022-12-07T01:56:45;3.50;99.90
11963;DHT22;62678;52.130;5.584;2022-12-07T01:59:13;3.40;99.90
11963;DHT22;62678;52.130;5.584;2022-12-07T02:01:41;3.50;99.90
11963;DHT22;62678;52.130;5.584;2022-12-07T02:04:08;3.60;99.90
11963;DHT22;62678;52.130;5.584;2022-12-07T02:06:35;3.70;99.90
11963;DHT22;62678;52.130;5.584;2022-12-07T02:09:05;3.70;99.90
11963;DHT22;62678;52.130;5.584;2022-12-07T02:11:32;3.80;99.90
11963;DHT22;62678;52.130;5.584;2022-12-07T02:13:59;3.90;99.90
11963;DHT22;62678;52.130;5.584;2022-12-07T02:16:32;3.90;99.90
11963;DHT22;62678;52.130;5.584;2022-12-07T02:22:17;3.90;99.90
11963;DHT22;62678;52.130;5.584;2022-12-07T02:24:54;3.80;99.90
11963;DHT22;62678;52.130;5.584;2022-12-07T02:27:43;3.90;99.90
11963;DHT22;62678;52.130;5.584;2022-12-07T02:30:14;4.00;99.90
11963;DHT22;62678;52.130;5.584;2022-12-07T02:32:46;4.00;99.90
11963;DHT22;62678;52.130;5.584;2022-12-07T02:35:19;4.00;99.90
11963;DHT22;62678;52.130;5.584;2022-12-07T02:37:53;4.00;99.90
11963;DHT22;62678;52.130;5.584;2022-12-07T02:40:25;4.00;99.90
11963;DHT22;62678;52.130;5.584;2022-12-07T02:43:00;4.00;99.90
11963;DHT22;62678;52.130;5.584;2022-12-07T02:45:31;4.10;99.90
11963;DHT22;62678;52.130;5.584;2022-12-07T02:47:59;4.00;99.90
11963;DHT22;62678;52.130;5.584;2022-12-07T02:50:27;4.00;99.90
11963;DHT22;62678;52.130;5.584;2022-12-07T02:52:54;4.10;99.90
11963;DHT22;62678;52.130;5.584;2022-12-07T02:55:26;4.10;99.90
11963;DHT22;62678;52.130;5.584;2022-12-07T02:58:06;4.10;99.90
11963;DHT22;62678;52.130;5.584;2022-12-07T03:00:44;4.10;99.90
11963;DHT22;62678;52.130;5.584;2022-12-07T03:03:15;4.00;99.90
11963;DHT22;62678;52.130;5.584;2022-12-07T03:05:53;4.00;99.90
11963;DHT22;62678;52.130;5.584;2022-12-07T03:08:25;4.00;99.90
11963;DHT22;62678;52.130;5.584;2022-12-07T03:10:56;4.00;99.90
11963;DHT22;62678;52.130;5.584;2022-12-07T03:13:29;4.00;99.90
11963;DHT22;62678;52.130;5.584;2022-12-07T03:16:02;4.00;99.90
11963;DHT22;62678;52.130;5.584;2022-12-07T03:18:35;4.00;99.90
11963;DHT22;62678;52.130;5.584;2022-12-07T03:21:07;4.00;99.90
11963;DHT22;62678;52.130;5.584;2022-12-07T03:23:35;3.90;99.90
11963;DHT22;62678;52.130;5.584;2022-12-07T03:26:05;3.90;99.90
11963;DHT22;62678;52.130;5.584;2022-12-07T03:28:35;3.90;99.90
11963;DHT22;62678;52.130;5.584;2022-12-07T03:31:09;3.90;99.90
11963;DHT22;62678;52.130;5.584;2022-12-07T03:33:42;4.00;99.90
11963;DHT22;62678;52.130;5.584;2022-12-07T03:36:16;4.00;99.90
11963;DHT22;62678;52.130;5.584;2022-12-07T03:38:49;4.00;99.90
11963;DHT22;62678;52.130;5.584;2022-12-07T03:41:23;4.00;99.90
11963;DHT22;62678;52.130;5.584;2022-12-07T03:43:51;4.20;99.90
11963;DHT22;62678;52.130;5.584;2022-12-07T03:46:27;4.10;99.90
11963;DHT22;62678;52.130;5.584;2022-12-07T03:48:59;4.10;99.90
11963;DHT22;62678;52.130;5.584;2022-12-07T03:51:34;4.10;99.90
11963;DHT22;62678;52.130;5.584;2022-12-07T03:54:09;4.00;99.90
11963;DHT22;62678;52.130;5.584;2022-12-07T03:56:37;3.90;99.90
11963;DHT22;62678;52.130;5.584;2022-12-07T03:59:05;3.80;99.90
11963;DHT22;62678;52.130;5.584;2022-12-07T04:01:34;3.80;99.90
11963;DHT22;62678;52.130;5.584;2022-12-07T04:04:01;3.80;99.90
11963;DHT22;62678;52.130;5.584;2022-12-07T04:06:28;3.80;99.90
11963;DHT22;62678;52.130;5.584;2022-12-07T04:08:55;3.90;99.90
11963;DHT22;62678;52.130;5.584;2022-12-07T04:11:22;4.00;99.90
11963;DHT22;62678;52.130;5.584;2022-12-07T04:13:48;4.10;99.90
11963;DHT22;62678;52.130;5.584;2022-12-07T04:16:34;4.00;99.90
11963;DHT22;62678;52.130;5.584;2022-12-07T04:19:01;4.00;99.90
11963;DHT22;62678;52.130;5.584;2022-12-07T04:21:28;4.00;99.90
11963;DHT22;62678;52.130;5.584;2022-12-07T04:23:55;4.00;99.90
11963;DHT22;62678;52.130;5.584;2022-12-07T04:26:22;4.00;99.90
11963;DHT22;62678;52.130;5.584;2022-12-07T04:28:49;4.00;99.90
11963;DHT22;62678;52.130;5.584;2022-12-07T04:31:16;4.00;99.90
11963;DHT22;62678;52.130;5.584;2022-12-07T04:33:44;4.00;99.90
11963;DHT22;62678;52.130;5.584;2022-12-07T04:36:11;4.00;99.90
11963;DHT22;62678;52.130;5.584;2022-12-07T04:38:37;4.00;99.90
11963;DHT22;62678;52.130;5.584;2022-12-07T04:41:05;4.00;99.90
11963;DHT22;62678;52.130;5.584;2022-12-07T04:43:32;3.90;99.90
11963;DHT22;62678;52.130;5.584;2022-12-07T04:46:00;3.90;99.90
11963;DHT22;62678;52.130;5.584;2022-12-07T04:48:27;3.80;99.90
11963;DHT22;62678;52.130;5.584;2022-12-07T04:50:55;3.90;99.90
11963;DHT22;62678;52.130;5.584;2022-12-07T04:53:22;3.90;99.90
11963;DHT22;62678;52.130;5.584;2022-12-07T04:55:49;3.90;99.90
11963;DHT22;62678;52.130;5.584;2022-12-07T04:58:16;3.80;99.90
11963;DHT22;62678;52.130;5.584;2022-12-07T05:00:43;3.80;99.90
11963;DHT22;62678;52.130;5.584;2022-12-07T05:03:10;3.80;99.90
11963;DHT22;62678;52.130;5.584;2022-12-07T05:05:40;3.90;99.90
11963;DHT22;62678;52.130;5.584;2022-12-07T05:08:08;3.90;99.90
11963;DHT22;62678;52.130;5.584;2022-12-07T05:10:35;3.90;99.90
11963;DHT22;62678;52.130;5.584;2022-12-07T05:13:02;3.90;99.90
11963;DHT22;62678;52.130;5.584;2022-12-07T05:15:28;3.80;99.90
11963;DHT22;62678;52.130;5.584;2022-12-07T05:17:55;3.80;99.90
11963;DHT22;62678;52.130;5.584;2022-12-07T05:20:22;3.70;99.90
11963;DHT22;62678;52.130;5.584;2022-12-07T05:22:49;3.70;99.90
11963;DHT22;62678;52.130;5.584;2022-12-07T05:25:17;3.70;99.90
11963;DHT22;62678;52.130;5.584;2022-12-07T05:27:44;3.60;99.90
11963;DHT22;62678;52.130;5.584;2022-12-07T05:30:12;3.60;99.90
11963;DHT22;62678;52.130;5.584;2022-12-07T05:32:39;3.60;99.90
11963;DHT22;62678;52.130;5.584;2022-12-07T05:35:06;3.60;99.90
11963;DHT22;62678;52.130;5.584;2022-12-07T05:37:33;3.50;99.90
11963;DHT22;62678;52.130;5.584;2022-12-07T05:40:00;3.50;99.90
11963;DHT22;62678;52.130;5.584;2022-12-07T05:42:29;3.40;99.90
11963;DHT22;62678;52.130;5.584;2022-12-07T05:44:55;3.30;99.90
11963;DHT22;62678;52.130;5.584;2022-12-07T05:47:22;3.30;99.90
11963;DHT22;62678;52.130;5.584;2022-12-07T05:49:49;3.20;99.90
11963;DHT22;62678;52.130;5.584;2022-12-07T05:52:16;3.20;99.90
11963;DHT22;62678;52.130;5.584;2022-12-07T05:54:43;3.20;99.90
11963;DHT22;62678;52.130;5.584;2022-12-07T05:57:10;3.20;99.90
11963;DHT22;62678;52.130;5.584;2022-12-07T05:59:39;3.20;99.90
11963;DHT22;62678;52.130;5.584;2022-12-07T06:02:07;3.30;99.90
11963;DHT22;62678;52.130;5.584;2022-12-07T06:04:35;3.30;99.90
11963;DHT22;62678;52.130;5.584;2022-12-07T06:07:03;3.30;99.90
11963;DHT22;62678;52.130;5.584;2022-12-07T06:09:31;3.30;99.90
11963;DHT22;62678;52.130;5.584;2022-12-07T06:11:58;3.30;99.90
11963;DHT22;62678;52.130;5.584;2022-12-07T06:14:44;3.40;99.90
11963;DHT22;62678;52.130;5.584;2022-12-07T06:17:12;3.50;99.90
11963;DHT22;62678;52.130;5.584;2022-12-07T06:19:39;3.60;99.90
11963;DHT22;62678;52.130;5.584;2022-12-07T06:22:07;3.60;99.90
11963;DHT22;62678;52.130;5.584;2022-12-07T06:24:35;3.70;99.90
11963;DHT22;62678;52.130;5.584;2022-12-07T06:27:02;3.60;99.90
11963;DHT22;62678;52.130;5.584;2022-12-07T06:29:29;3.60;99.90
11963;DHT22;62678;52.130;5.584;2022-12-07T06:31:57;3.60;99.90
11963;DHT22;62678;52.130;5.584;2022-12-07T06:34:26;3.60;99.90
11963;DHT22;62678;52.130;5.584;2022-12-07T06:36:54;3.60;99.90
11963;DHT22;62678;52.130;5.584;2022-12-07T06:39:23;3.50;99.90
11963;DHT22;62678;52.130;5.584;2022-12-07T06:41:50;3.50;99.90
11963;DHT22;62678;52.130;5.584;2022-12-07T06:44:18;3.50;99.90
11963;DHT22;62678;52.130;5.584;2022-12-07T06:46:45;3.50;99.90
11963;DHT22;62678;52.130;5.584;2022-12-07T06:49:14;3.50;99.90
11963;DHT22;62678;52.130;5.584;2022-12-07T06:51:42;3.50;99.90
11963;DHT22;62678;52.130;5.584;2022-12-07T06:54:09;3.50;99.90
11963;DHT22;62678;52.130;5.584;2022-12-07T06:56:37;3.50;99.90
11963;DHT22;62678;52.130;5.584;2022-12-07T06:59:04;3.50;99.90
11963;DHT22;62678;52.130;5.584;2022-12-07T07:01:32;3.50;99.90
11963;DHT22;62678;52.130;5.584;2022-12-07T07:04:00;3.50;99.90
11963;DHT22;62678;52.130;5.584;2022-12-07T07:06:29;3.40;99.90
11963;DHT22;62678;52.130;5.584;2022-12-07T07:08:56;3.40;99.90
11963;DHT22;62678;52.130;5.584;2022-12-07T07:11:22;3.40;99.90
11963;DHT22;62678;52.130;5.584;2022-12-07T07:13:49;3.40;99.90
11963;DHT22;62678;52.130;5.584;2022-12-07T07:16:16;3.40;99.90
11963;DHT22;62678;52.130;5.584;2022-12-07T07:18:43;3.40;99.90
11963;DHT22;62678;52.130;5.584;2022-12-07T07:21:10;3.30;99.90
11963;DHT22;62678;52.130;5.584;2022-12-07T07:23:39;3.30;99.90
11963;DHT22;62678;52.130;5.584;2022-12-07T07:26:06;3.30;99.90
11963;DHT22;62678;52.130;5.584;2022-12-07T07:28:33;3.20;99.90
11963;DHT22;62678;52.130;5.584;2022-12-07T07:31:00;3.20;99.90
11963;DHT22;62678;52.130;5.584;2022-12-07T07:33:27;3.20;99.90
11963;DHT22;62678;52.130;5.584;2022-12-07T07:35:54;3.10;99.90
11963;DHT22;62678;52.130;5.584;2022-12-07T07:38:21;3.10;99.90
11963;DHT22;62678;52.130;5.584;2022-12-07T07:40:50;3.10;99.90
11963;DHT22;62678;52.130;5.584;2022-12-07T07:43:17;3.10;99.90
11963;DHT22;62678;52.130;5.584;2022-12-07T07:45:44;3.20;99.90
11963;DHT22;62678;52.130;5.584;2022-12-07T07:48:11;3.20;99.90
11963;DHT22;62678;52.130;5.584;2022-12-07T07:50:38;3.20;99.90
11963;DHT22;62678;52.130;5.584;2022-12-07T07:53:06;3.20;99.90
11963;DHT22;62678;52.130;5.584;2022-12-07T07:55:33;3.30;99.90
11963;DHT22;62678;52.130;5.584;2022-12-07T07:58:01;3.30;99.90
11963;DHT22;62678;52.130;5.584;2022-12-07T08:00:29;3.40;99.90
11963;DHT22;62678;52.130;5.584;2022-12-07T08:02:56;3.60;99.90
11963;DHT22;62678;52.130;5.584;2022-12-07T08:05:23;3.80;99.90
11963;DHT22;62678;52.130;5.584;2022-12-07T08:07:52;3.70;99.90
11963;DHT22;62678;52.130;5.584;2022-12-07T08:10:19;3.70;99.90
11963;DHT22;62678;52.130;5.584;2022-12-07T08:12:46;3.70;99.90
11963;DHT22;62678;52.130;5.584;2022-12-07T08:15:32;3.60;99.90
11963;DHT22;62678;52.130;5.584;2022-12-07T08:17:59;3.60;99.90
11963;DHT22;62678;52.130;5.584;2022-12-07T08:20:29;3.60;99.90
11963;DHT22;62678;52.130;5.584;2022-12-07T08:22:57;3.70;99.90
11963;DHT22;62678;52.130;5.584;2022-12-07T08:25:24;3.70;99.90
11963;DHT22;62678;52.130;5.584;2022-12-07T08:27:52;3.80;99.90
11963;DHT22;62678;52.130;5.584;2022-12-07T08:30:20;3.90;99.90
11963;DHT22;62678;52.130;5.584;2022-12-07T08:32:49;3.90;99.90
11963;DHT22;62678;52.130;5.584;2022-12-07T08:35:16;4.00;99.90
11963;DHT22;62678;52.130;5.584;2022-12-07T08:37:43;4.00;99.90
11963;DHT22;62678;52.130;5.584;2022-12-07T08:40:12;4.20;99.90
11963;DHT22;62678;52.130;5.584;2022-12-07T08:42:41;4.20;99.90
11963;DHT22;62678;52.130;5.584;2022-12-07T08:45:11;4.40;99.90
11963;DHT22;62678;52.130;5.584;2022-12-07T08:47:41;4.50;99.90
11963;DHT22;62678;52.130;5.584;2022-12-07T08:50:12;4.60;99.90
11963;DHT22;62678;52.130;5.584;2022-12-07T08:52:40;4.50;99.90
11963;DHT22;62678;52.130;5.584;2022-12-07T08:55:09;4.50;99.90
11963;DHT22;62678;52.130;5.584;2022-12-07T08:57:37;4.60;99.90
11963;DHT22;62678;52.130;5.584;2022-12-07T09:00:06;4.60;99.90
11963;DHT22;62678;52.130;5.584;2022-12-07T09:02:33;4.60;99.90
11963;DHT22;62678;52.130;5.584;2022-12-07T09:05:00;4.60;99.90
11963;DHT22;62678;52.130;5.584;2022-12-07T09:07:30;4.60;99.90
11963;DHT22;62678;52.130;5.584;2022-12-07T09:09:58;4.60;99.90
11963;DHT22;62678;52.130;5.584;2022-12-07T09:12:25;4.60;99.90
11963;DHT22;62678;52.130;5.584;2022-12-07T09:14:52;4.60;99.90
11963;DHT22;62678;52.130;5.584;2022-12-07T09:17:19;4.70;99.90
11963;DHT22;62678;52.130;5.584;2022-12-07T09:19:46;4.60;99.90
11963;DHT22;62678;52.130;5.584;2022-12-07T09:22:13;4.70;99.90
11963;DHT22;62678;52.130;5.584;2022-12-07T09:24:41;4.70;99.90
11963;DHT22;62678;52.130;5.584;2022-12-07T09:27:09;4.80;99.90
11963;DHT22;62678;52.130;5.584;2022-12-07T09:29:35;4.90;99.90
11963;DHT22;62678;52.130;5.584;2022-12-07T09:32:03;4.90;99.90
11963;DHT22;62678;52.130;5.584;2022-12-07T09:34:30;5.10;99.90
11963;DHT22;62678;52.130;5.584;2022-12-07T09:36:57;5.10;99.90
11963;DHT22;62678;52.130;5.584;2022-12-07T09:39:26;5.30;99.90
11963;DHT22;62678;52.130;5.584;2022-12-07T09:41:54;5.20;99.90
11963;DHT22;62678;52.130;5.584;2022-12-07T09:44:24;5.30;99.90
11963;DHT22;62678;52.130;5.584;2022-12-07T09:46:51;5.40;99.90
11963;DHT22;62678;52.130;5.584;2022-12-07T09:49:20;5.30;99.90
11963;DHT22;62678;52.130;5.584;2022-12-07T09:51:48;5.20;99.90
11963;DHT22;62678;52.130;5.584;2022-12-07T09:54:25;5.30;99.90
11963;DHT22;62678;52.130;5.584;2022-12-07T09:56:54;5.30;99.90
11963;DHT22;62678;52.130;5.584;2022-12-07T09:59:21;5.30;99.90
11963;DHT22;62678;52.130;5.584;2022-12-07T10:01:49;5.30;99.90
11963;DHT22;62678;52.130;5.584;2022-12-07T10:04:19;5.20;99.90
11963;DHT22;62678;52.130;5.584;2022-12-07T10:06:46;5.20;99.90
11963;DHT22;62678;52.130;5.584;2022-12-07T10:09:16;5.30;99.90
11963;DHT22;62678;52.130;5.584;2022-12-07T10:12:01;5.40;99.90
11963;DHT22;62678;52.130;5.584;2022-12-07T10:14:30;5.40;99.90
11963;DHT22;62678;52.130;5.584;2022-12-07T10:16:58;5.40;99.90
11963;DHT22;62678;52.130;5.584;2022-12-07T10:19:27;5.50;99.90
11963;DHT22;62678;52.130;5.584;2022-12-07T10:22:03;5.50;99.90
11963;DHT22;62678;52.130;5.584;2022-12-07T10:24:30;5.40;99.90
11963;DHT22;62678;52.130;5.584;2022-12-07T10:27:00;5.50;99.90
11963;DHT22;62678;52.130;5.584;2022-12-07T10:29:30;5.50;99.90
11963;DHT22;62678;52.130;5.584;2022-12-07T10:31:59;5.60;99.90
11963;DHT22;62678;52.130;5.584;2022-12-07T10:34:28;5.70;99.90
11963;DHT22;62678;52.130;5.584;2022-12-07T10:37:14;5.70;99.90
11963;DHT22;62678;52.130;5.584;2022-12-07T10:39:42;5.80;99.90
11963;DHT22;62678;52.130;5.584;2022-12-07T10:42:18;5.70;99.90
11963;DHT22;62678;52.130;5.584;2022-12-07T10:44:46;5.80;99.90
11963;DHT22;62678;52.130;5.584;2022-12-07T10:47:28;5.90;99.90
11963;DHT22;62678;52.130;5.584;2022-12-07T10:50:14;5.90;99.90
11963;DHT22;62678;52.130;5.584;2022-12-07T10:52:58;5.90;99.90
11963;DHT22;62678;52.130;5.584;2022-12-07T10:55:40;6.00;99.90
11963;DHT22;62678;52.130;5.584;2022-12-07T10:58:25;6.10;99.90
11963;DHT22;62678;52.130;5.584;2022-12-07T11:01:01;6.10;99.90
11963;DHT22;62678;52.130;5.584;2022-12-07T11:04:13;6.10;99.90
11963;DHT22;62678;52.130;5.584;2022-12-07T11:06:48;6.10;99.90
11963;DHT22;62678;52.130;5.584;2022-12-07T11:09:40;6.20;99.90
11963;DHT22;62678;52.130;5.584;2022-12-07T11:12:16;6.40;99.90
11963;DHT22;62678;52.130;5.584;2022-12-07T11:14:53;6.50;99.90
11963;DHT22;62678;52.130;5.584;2022-12-07T11:17:28;6.70;99.90
11963;DHT22;62678;52.130;5.584;2022-12-07T11:20:05;6.70;99.90
11963;DHT22;62678;52.130;5.584;2022-12-07T11:22:45;6.70;99.90
11963;DHT22;62678;52.130;5.584;2022-12-07T11:25:19;6.70;99.90
11963;DHT22;62678;52.130;5.584;2022-12-07T11:27:56;6.60;99.90
11963;DHT22;62678;52.130;5.584;2022-12-07T11:30:34;6.70;99.90
11963;DHT22;62678;52.130;5.584;2022-12-07T11:33:12;6.70;99.90
11963;DHT22;62678;52.130;5.584;2022-12-07T11:35:49;6.70;99.90
11963;DHT22;62678;52.130;5.584;2022-12-07T11:38:23;6.70;99.90
11963;DHT22;62678;52.130;5.584;2022-12-07T11:40:56;6.60;99.90
11963;DHT22;62678;52.130;5.584;2022-12-07T11:43:46;6.60;99.90
11963;DHT22;62678;52.130;5.584;2022-12-07T11:46:20;6.70;99.90
11963;DHT22;62678;52.130;5.584;2022-12-07T11:48:57;6.80;99.90
11963;DHT22;62678;52.130;5.584;2022-12-07T11:51:25;6.80;99.90
11963;DHT22;62678;52.130;5.584;2022-12-07T11:53:55;7.00;99.90
11963;DHT22;62678;52.130;5.584;2022-12-07T11:56:26;7.00;99.90
11963;DHT22;62678;52.130;5.584;2022-12-07T11:58:57;7.10;99.90
11963;DHT22;62678;52.130;5.584;2022-12-07T12:01:40;7.20;99.90
11963;DHT22;62678;52.130;5.584;2022-12-07T12:04:22;7.40;99.90
11963;DHT22;62678;52.130;5.584;2022-12-07T12:06:50;7.40;99.90
11963;DHT22;62678;52.130;5.584;2022-12-07T12:09:22;7.50;99.90
11963;DHT22;62678;52.130;5.584;2022-12-07T12:12:13;7.60;99.90
11963;DHT22;62678;52.130;5.584;2022-12-07T12:14:53;7.60;99.90
11963;DHT22;62678;52.130;5.584;2022-12-07T12:17:56;7.50;99.90
11963;DHT22;62678;52.130;5.584;2022-12-07T12:20:29;7.30;99.90
11963;DHT22;62678;52.130;5.584;2022-12-07T12:23:01;7.30;99.90
11963;DHT22;62678;52.130;5.584;2022-12-07T12:25:39;7.30;99.90
11963;DHT22;62678;52.130;5.584;2022-12-07T12:28:23;7.30;99.90
11963;DHT22;62678;52.130;5.584;2022-12-07T12:31:08;7.40;99.90
11963;DHT22;62678;52.130;5.584;2022-12-07T12:33:38;7.40;99.90
11963;DHT22;62678;52.130;5.584;2022-12-07T12:36:25;7.30;99.90
11963;DHT22;62678;52.130;5.584;2022-12-07T12:39:17;7.30;99.90
11963;DHT22;62678;52.130;5.584;2022-12-07T12:42:00;7.40;99.90
11963;DHT22;62678;52.130;5.584;2022-12-07T12:47:42;7.40;99.90
11963;DHT22;62678;52.130;5.584;2022-12-07T12:50:19;7.50;99.90
11963;DHT22;62678;52.130;5.584;2022-12-07T12:53:19;7.60;99.90
11963;DHT22;62678;52.130;5.584;2022-12-07T12:56:15;7.90;99.90
11963;DHT22;62678;52.130;5.584;2022-12-07T12:58:47;7.90;99.90
11963;DHT22;62678;52.130;5.584;2022-12-07T13:01:38;7.90;99.90
11963;DHT22;62678;52.130;5.584;2022-12-07T13:07:55;7.90;99.90
11963;DHT22;62678;52.130;5.584;2022-12-07T13:10:36;7.80;99.90
11963;DHT22;62678;52.130;5.584;2022-12-07T13:13:33;7.60;99.90
11963;DHT22;62678;52.130;5.584;2022-12-07T13:16:39;7.50;99.90
11963;DHT22;62678;52.130;5.584;2022-12-07T13:22:53;7.30;99.90
11963;DHT22;62678;52.130;5.584;2022-12-07T13:25:29;6.80;99.90
11963;DHT22;62678;52.130;5.584;2022-12-07T13:28:02;6.30;99.90
11963;DHT22;62678;52.130;5.584;2022-12-07T13:30:30;6.20;99.90
11963;DHT22;62678;52.130;5.584;2022-12-07T13:32:58;6.20;99.90
11963;DHT22;62678;52.130;5.584;2022-12-07T13:35:33;6.10;99.90
11963;DHT22;62678;52.130;5.584;2022-12-07T13:38:13;6.00;99.90
11963;DHT22;62678;52.130;5.584;2022-12-07T13:40:40;6.00;99.90
11963;DHT22;62678;52.130;5.584;2022-12-07T13:43:15;5.80;99.90
11963;DHT22;62678;52.130;5.584;2022-12-07T13:45:43;5.90;99.90
11963;DHT22;62678;52.130;5.584;2022-12-07T13:48:21;5.90;99.90
11963;DHT22;62678;52.130;5.584;2022-12-07T13:50:55;5.90;99.90
11963;DHT22;62678;52.130;5.584;2022-12-07T13:53:25;5.90;99.90
11963;DHT22;62678;52.130;5.584;2022-12-07T13:55:56;6.00;99.90
11963;DHT22;62678;52.130;5.584;2022-12-07T13:58:23;6.10;99.90
11963;DHT22;62678;52.130;5.584;2022-12-07T14:00:51;6.00;99.90
11963;DHT22;62678;52.130;5.584;2022-12-07T14:03:30;6.00;99.90
11963;DHT22;62678;52.130;5.584;2022-12-07T14:06:17;6.10;99.90
11963;DHT22;62678;52.130;5.584;2022-12-07T14:08:45;6.20;99.90
11963;DHT22;62678;52.130;5.584;2022-12-07T14:11:17;6.20;99.90
11963;DHT22;62678;52.130;5.584;2022-12-07T14:13:52;6.20;99.90
11963;DHT22;62678;52.130;5.584;2022-12-07T14:16:25;6.20;99.90
11963;DHT22;62678;52.130;5.584;2022-12-07T14:18:53;6.20;99.90
11963;DHT22;62678;52.130;5.584;2022-12-07T14:21:22;6.20;99.90
11963;DHT22;62678;52.130;5.584;2022-12-07T14:24:12;6.20;99.90
11963;DHT22;62678;52.130;5.584;2022-12-07T14:26:41;6.20;99.90
11963;DHT22;62678;52.130;5.584;2022-12-07T14:29:27;6.20;99.90
11963;DHT22;62678;52.130;5.584;2022-12-07T14:31:57;6.10;99.90
11963;DHT22;62678;52.130;5.584;2022-12-07T14:34:24;6.10;99.90
11963;DHT22;62678;52.130;5.584;2022-12-07T14:36:51;6.10;99.90
11963;DHT22;62678;52.130;5.584;2022-12-07T14:39:20;6.00;99.90
11963;DHT22;62678;52.130;5.584;2022-12-07T14:41:46;6.00;99.90
11963;DHT22;62678;52.130;5.584;2022-12-07T14:44:17;6.00;99.90
11963;DHT22;62678;52.130;5.584;2022-12-07T14:46:44;6.00;99.90
11963;DHT22;62678;52.130;5.584;2022-12-07T14:49:11;6.10;99.90
11963;DHT22;62678;52.130;5.584;2022-12-07T14:51:39;6.00;99.90
11963;DHT22;62678;52.130;5.584;2022-12-07T14:54:13;6.00;99.90
11963;DHT22;62678;52.130;5.584;2022-12-07T14:56:43;6.00;99.90
11963;DHT22;62678;52.130;5.584;2022-12-07T14:59:11;6.10;99.90
11963;DHT22;62678;52.130;5.584;2022-12-07T15:01:38;6.10;99.90
11963;DHT22;62678;52.130;5.584;2022-12-07T15:04:05;5.90;99.90
11963;DHT22;62678;52.130;5.584;2022-12-07T15:06:32;5.90;99.90
11963;DHT22;62678;52.130;5.584;2022-12-07T15:08:59;5.90;99.90
11963;DHT22;62678;52.130;5.584;2022-12-07T15:11:27;5.80;99.90
11963;DHT22;62678;52.130;5.584;2022-12-07T15:13:55;5.80;99.90
11963;DHT22;62678;52.130;5.584;2022-12-07T15:16:34;5.80;99.90
11963;DHT22;62678;52.130;5.584;2022-12-07T15:19:02;5.80;99.90
11963;DHT22;62678;52.130;5.584;2022-12-07T15:21:29;5.80;99.90
11963;DHT22;62678;52.130;5.584;2022-12-07T15:23:56;6.00;99.90
11963;DHT22;62678;52.130;5.584;2022-12-07T15:26:22;6.00;99.90
11963;DHT22;62678;52.130;5.584;2022-12-07T15:28:49;5.90;99.90
11963;DHT22;62678;52.130;5.584;2022-12-07T15:31:17;5.80;99.90
11963;DHT22;62678;52.130;5.584;2022-12-07T15:33:44;5.90;99.90
11963;DHT22;62678;52.130;5.584;2022-12-07T15:36:20;5.90;99.90
11963;DHT22;62678;52.130;5.584;2022-12-07T15:38:47;5.80;99.90
11963;DHT22;62678;52.130;5.584;2022-12-07T15:41:14;5.70;99.90
11963;DHT22;62678;52.130;5.584;2022-12-07T15:43:41;5.70;99.90
11963;DHT22;62678;52.130;5.584;2022-12-07T15:46:30;5.70;99.90
11963;DHT22;62678;52.130;5.584;2022-12-07T15:48:58;5.60;99.90
11963;DHT22;62678;52.130;5.584;2022-12-07T15:51:25;5.60;99.90
11963;DHT22;62678;52.130;5.584;2022-12-07T15:53:52;5.70;99.90
11963;DHT22;62678;52.130;5.584;2022-12-07T15:56:19;5.60;99.90
11963;DHT22;62678;52.130;5.584;2022-12-07T15:58:46;5.50;99.90
11963;DHT22;62678;52.130;5.584;2022-12-07T16:01:14;5.50;99.90
11963;DHT22;62678;52.130;5.584;2022-12-07T16:03:43;5.50;99.90
11963;DHT22;62678;52.130;5.584;2022-12-07T16:06:15;5.50;99.90
11963;DHT22;62678;52.130;5.584;2022-12-07T16:08:42;5.40;99.90
11963;DHT22;62678;52.130;5.584;2022-12-07T16:11:10;5.50;99.90
11963;DHT22;62678;52.130;5.584;2022-12-07T16:13:37;5.50;99.90
11963;DHT22;62678;52.130;5.584;2022-12-07T16:16:05;5.40;99.90
11963;DHT22;62678;52.130;5.584;2022-12-07T16:18:33;5.40;99.90
11963;DHT22;62678;52.130;5.584;2022-12-07T16:21:02;5.40;99.90